createdAt,value
2022-10-26T00:02:22.888Z,85.12
2022-10-26T00:04:52.762Z,85.41
2022-10-26T00:07:21.648Z,85.24
2022-10-26T00:09:51.329Z,85.05
2022-10-26T00:12:19.964Z,85.20
2022-10-26T00:14:52.243Z,85.50
2022-10-26T00:17:20.944Z,85.87
2022-10-26T00:19:49.623Z,85.11
2022-10-26T00:22:18.368Z,85.01
2022-10-26T00:24:47.453Z,84.97
2022-10-26T00:27:16.415Z,84.72
2022-10-26T00:29:45.063Z,84.18
2022-10-26T00:32:15.061Z,84.03
2022-10-26T00:34:43.707Z,84.74
2022-10-26T00:37:12.554Z,85.04
2022-10-26T00:39:41.162Z,84.79
2022-10-26T00:42:15.386Z,84.56
2022-10-26T00:45:05.640Z,84.39
2022-10-26T00:47:44.514Z,84.70
2022-10-26T00:50:19.760Z,84.85
2022-10-26T00:52:49.848Z,85.45
2022-10-26T00:55:22.791Z,85.04
2022-10-26T00:57:53.662Z,85.16
2022-10-26T01:00:23.318Z,84.78
2022-10-26T01:02:56.323Z,85.00
2022-10-26T01:05:27.466Z,84.88
2022-10-26T01:07:56.773Z,85.20
2022-10-26T01:10:28.579Z,85.69
2022-10-26T01:13:00.022Z,85.22
2022-10-26T01:15:44.572Z,85.72
2022-10-26T01:18:27.140Z,85.41
2022-10-26T01:21:45.946Z,85.77
2022-10-26T01:25:03.128Z,86.08
2022-10-26T01:27:35.799Z,85.88
2022-10-26T01:30:35.029Z,85.87
2022-10-26T01:33:33.884Z,85.60
2022-10-26T01:36:13.400Z,85.75
2022-10-26T01:38:59.113Z,85.63
2022-10-26T01:41:34.320Z,85.82
2022-10-26T01:44:16.610Z,85.56
2022-10-26T01:46:51.430Z,86.17
2022-10-26T01:49:27.177Z,85.88
2022-10-26T01:51:56.281Z,85.86
2022-10-26T01:54:25.183Z,85.45
2022-10-26T01:56:58.718Z,85.37
2022-10-26T02:00:00.635Z,84.72
2022-10-26T02:03:04.544Z,85.38
2022-10-26T02:06:07.741Z,85.75
2022-10-26T02:08:59.651Z,85.72
2022-10-26T02:11:41.408Z,85.92
2022-10-26T02:14:23.680Z,86.31
2022-10-26T02:16:58.419Z,86.50
2022-10-26T02:19:39.855Z,86.02
2022-10-26T02:22:16.972Z,86.10
2022-10-26T02:24:47.405Z,85.90
2022-10-26T02:27:24.060Z,86.25
2022-10-26T02:29:56.419Z,86.12
2022-10-26T02:32:31.161Z,86.25
2022-10-26T02:35:06.995Z,86.18
2022-10-26T02:37:37.846Z,86.04
2022-10-26T02:40:14.650Z,85.86
2022-10-26T02:42:47.514Z,85.67
2022-10-26T02:45:29.578Z,85.48
2022-10-26T02:47:59.241Z,85.27
2022-10-26T02:50:43.569Z,85.15
2022-10-26T02:53:23.548Z,84.82
2022-10-26T02:55:53.513Z,85.68
2022-10-26T02:58:29.162Z,86.01
2022-10-26T03:00:59.329Z,86.24
2022-10-26T03:03:27.997Z,85.46
2022-10-26T03:05:58.178Z,85.27
2022-10-26T03:10:55.458Z,85.55
2022-10-26T03:13:24.066Z,85.55
2022-10-26T03:15:56.064Z,86.23
2022-10-26T03:18:24.855Z,85.89
2022-10-26T03:20:53.500Z,85.53
2022-10-26T03:23:23.692Z,85.83
2022-10-26T03:25:52.475Z,85.60
2022-10-26T03:28:22.075Z,85.13
2022-10-26T03:31:42.517Z,85.50
2022-10-26T03:34:11.211Z,85.95
2022-10-26T03:36:39.916Z,85.55
2022-10-26T03:39:10.001Z,85.83
2022-10-26T03:41:38.641Z,85.11
2022-10-26T03:44:07.634Z,85.77
2022-10-26T03:46:37.307Z,85.38
2022-10-26T03:49:06.093Z,85.17
2022-10-26T03:51:34.722Z,84.74
2022-10-26T03:54:03.472Z,85.33
2022-10-26T03:56:33.617Z,85.77
2022-10-26T03:59:02.499Z,85.57
2022-10-26T04:01:31.209Z,85.08
2022-10-26T04:03:59.877Z,85.00
2022-10-26T04:06:28.660Z,84.81
2022-10-26T04:09:02.489Z,85.32
2022-10-26T04:11:32.876Z,85.19
2022-10-26T04:14:01.838Z,84.94
2022-10-26T04:16:33.277Z,85.04
2022-10-26T04:19:02.606Z,85.39
2022-10-26T04:21:32.990Z,85.25
2022-10-26T04:24:01.655Z,85.49
2022-10-26T04:26:30.648Z,85.48
2022-10-26T04:29:00.870Z,85.12
2022-10-26T04:31:29.607Z,85.12
2022-10-26T04:33:58.530Z,84.86
2022-10-26T04:36:27.219Z,85.33
2022-10-26T04:38:56.194Z,85.01
2022-10-26T04:41:24.917Z,85.11
2022-10-26T04:43:53.600Z,85.15
2022-10-26T04:46:23.649Z,85.33
2022-10-26T04:48:52.344Z,85.63
2022-10-26T04:51:21.112Z,85.06
2022-10-26T04:53:50.027Z,85.35
2022-10-26T04:56:18.767Z,85.75
2022-10-26T04:58:47.683Z,85.31
2022-10-26T05:01:16.783Z,85.54
2022-10-26T05:03:50.731Z,85.76
2022-10-26T05:06:19.447Z,84.90
2022-10-26T05:08:48.508Z,85.21
2022-10-26T05:11:17.407Z,85.62
2022-10-26T05:13:48.018Z,85.73
2022-10-26T05:16:17.526Z,85.42
2022-10-26T05:18:50.655Z,85.53
2022-10-26T05:21:20.512Z,85.22
2022-10-26T05:23:52.646Z,84.96
2022-10-26T05:26:21.806Z,85.20
2022-10-26T05:28:50.588Z,85.53
2022-10-26T05:31:19.308Z,85.87
2022-10-26T05:33:53.283Z,85.59
2022-10-26T05:36:22.491Z,85.56
2022-10-26T05:38:51.246Z,85.82
2022-10-26T05:41:19.973Z,85.68
2022-10-26T05:43:49.291Z,85.53
2022-10-26T05:46:18.311Z,85.33
2022-10-26T05:48:48.456Z,85.42
2022-10-26T05:51:18.671Z,85.80
2022-10-26T05:53:47.362Z,85.80
2022-10-26T05:56:22.274Z,85.90
2022-10-26T05:58:51.833Z,86.02
2022-10-26T06:01:34.470Z,85.83
2022-10-26T06:04:22.606Z,85.54
2022-10-26T06:06:56.126Z,85.80
2022-10-26T06:09:25.936Z,86.14
2022-10-26T06:11:55.625Z,86.70
2022-10-26T06:14:25.024Z,86.72
2022-10-26T06:17:16.837Z,86.03
2022-10-26T06:20:10.509Z,86.64
2022-10-26T06:23:01.926Z,86.14
2022-10-26T06:25:47.096Z,86.35
2022-10-26T06:28:35.498Z,86.27
2022-10-26T06:31:04.482Z,86.63
2022-10-26T06:33:33.675Z,86.44
2022-10-26T06:36:21.107Z,86.08
2022-10-26T06:38:57.020Z,86.56
2022-10-26T06:41:27.544Z,86.37
2022-10-26T06:43:58.432Z,86.84
2022-10-26T06:46:40.987Z,86.72
2022-10-26T06:49:22.430Z,86.30
2022-10-26T06:52:00.068Z,87.04
2022-10-26T06:54:48.595Z,87.17
2022-10-26T06:57:20.667Z,87.68
2022-10-26T06:59:54.756Z,87.25
2022-10-26T07:02:24.362Z,87.67
2022-10-26T07:04:53.244Z,87.35
2022-10-26T07:07:25.477Z,87.56
2022-10-26T07:09:55.938Z,87.85
2022-10-26T07:12:25.477Z,87.68
2022-10-26T07:14:55.974Z,87.93
2022-10-26T07:17:25.044Z,88.13
2022-10-26T07:19:53.934Z,88.14
2022-10-26T07:22:22.894Z,88.56
2022-10-26T07:24:52.234Z,88.21
2022-10-26T07:27:24.134Z,88.94
2022-10-26T07:29:53.730Z,89.24
2022-10-26T07:32:23.059Z,89.37
2022-10-26T07:34:51.977Z,89.35
2022-10-26T07:37:21.538Z,89.93
2022-10-26T07:39:50.405Z,89.98
2022-10-26T07:42:20.547Z,90.25
2022-10-26T07:44:51.515Z,90.20
2022-10-26T07:47:20.639Z,90.86
2022-10-26T07:49:49.500Z,91.09
2022-10-26T07:52:19.457Z,91.35
2022-10-26T07:54:48.424Z,91.85
2022-10-26T07:57:18.752Z,91.89
2022-10-26T07:59:48.217Z,91.86
2022-10-26T08:02:19.538Z,92.06
2022-10-26T08:04:49.386Z,91.91
2022-10-26T08:07:18.685Z,92.44
2022-10-26T08:09:47.849Z,92.20
2022-10-26T08:12:16.756Z,92.23
2022-10-26T08:14:45.587Z,92.04
2022-10-26T08:17:14.207Z,92.63
2022-10-26T08:19:44.355Z,92.52
2022-10-26T08:22:15.961Z,92.82
2022-10-26T08:24:46.882Z,92.99
2022-10-26T08:27:16.214Z,92.98
2022-10-26T08:29:45.183Z,93.61
2022-10-26T08:32:14.175Z,92.88
2022-10-26T08:34:44.266Z,93.04
2022-10-26T08:37:13.969Z,92.43
2022-10-26T08:39:44.603Z,92.87
2022-10-26T08:42:22.879Z,93.16
2022-10-26T08:45:00.674Z,93.15
2022-10-26T08:47:43.309Z,93.52
2022-10-26T08:50:23.091Z,93.81
2022-10-26T08:53:03.820Z,94.11
2022-10-26T08:55:45.527Z,94.31
2022-10-26T08:58:24.963Z,94.53
2022-10-26T09:00:55.828Z,95.11
2022-10-26T09:03:27.231Z,95.45
2022-10-26T09:06:20.122Z,95.43
2022-10-26T09:09:08.322Z,95.70
2022-10-26T09:11:55.876Z,96.21
2022-10-26T09:14:44.107Z,96.65
2022-10-26T09:17:25.332Z,96.65
2022-10-26T09:20:26.931Z,97.11
2022-10-26T09:23:11.898Z,97.84
2022-10-26T09:25:42.585Z,97.48
2022-10-26T09:28:19.641Z,97.67
2022-10-26T09:30:50.073Z,100.00
2022-10-26T09:33:24.289Z,98.61
2022-10-26T09:36:00.520Z,97.57
2022-10-26T09:38:35.610Z,97.41
2022-10-26T09:41:25.162Z,97.67
2022-10-26T09:44:06.993Z,96.16
2022-10-26T09:46:49.426Z,95.25
2022-10-26T09:49:22.347Z,92.86
2022-10-26T09:51:51.205Z,91.13
2022-10-26T09:54:22.896Z,88.74
2022-10-26T09:56:56.966Z,88.42
2022-10-26T09:59:27.587Z,89.65
2022-10-26T10:01:56.193Z,90.29
2022-10-26T10:04:26.163Z,91.74
2022-10-26T10:07:15.216Z,92.51
2022-10-26T10:09:45.380Z,93.51
2022-10-26T10:12:22.467Z,93.67
2022-10-26T10:14:59.816Z,94.67
2022-10-26T10:17:28.914Z,95.24
2022-10-26T10:20:13.073Z,95.45
2022-10-26T10:22:59.816Z,95.64
2022-10-26T10:25:38.003Z,96.74
2022-10-26T10:28:23.935Z,97.15
2022-10-26T10:31:01.043Z,97.46
2022-10-26T10:33:40.623Z,97.81
2022-10-26T10:36:16.385Z,97.77
2022-10-26T10:38:47.740Z,97.79
2022-10-26T10:41:28.202Z,97.71
2022-10-26T10:44:07.234Z,97.56
2022-10-26T10:46:37.809Z,97.94
2022-10-26T10:49:18.479Z,97.74
2022-10-26T10:51:48.319Z,96.86
2022-10-26T10:54:33.571Z,96.71
2022-10-26T10:57:24.073Z,97.06
2022-10-26T11:00:03.730Z,96.55
2022-10-26T11:03:17.007Z,96.71
2022-10-26T11:06:06.270Z,96.73
2022-10-26T11:08:44.646Z,96.53
2022-10-26T11:11:19.299Z,96.75
2022-10-26T11:13:57.268Z,97.27
2022-10-26T11:16:33.334Z,96.83
2022-10-26T11:27:26.777Z,95.36
2022-10-26T11:30:02.387Z,94.85
2022-10-26T11:32:41.163Z,94.76
2022-10-26T11:35:17.020Z,94.57
2022-10-26T11:37:55.079Z,94.37
2022-10-26T11:40:37.340Z,94.04
2022-10-26T11:43:23.606Z,93.97
2022-10-26T11:46:07.368Z,94.19
2022-10-26T11:48:46.027Z,94.32
2022-10-26T11:51:35.305Z,94.34
2022-10-26T11:54:12.028Z,94.48
2022-10-26T11:56:49.240Z,94.29
2022-10-26T11:59:28.033Z,94.55
2022-10-26T12:02:07.975Z,94.10
2022-10-26T12:04:40.611Z,94.17
2022-10-26T12:07:27.040Z,94.04
2022-10-26T12:09:59.136Z,94.28
2022-10-26T12:12:40.353Z,94.51
2022-10-26T12:15:30.903Z,94.34
2022-10-26T12:18:26.838Z,94.14
2022-10-26T12:21:05.681Z,94.31
2022-10-26T12:23:51.203Z,93.86
2022-10-26T12:26:53.392Z,93.18
2022-10-26T12:29:37.165Z,91.77
2022-10-26T12:32:52.199Z,91.04
2022-10-26T12:35:46.715Z,91.08
2022-10-26T12:39:00.255Z,89.77
2022-10-26T12:41:30.130Z,89.18
2022-10-26T12:44:08.987Z,89.92
2022-10-26T12:51:49.682Z,87.95
2022-10-26T12:54:45.638Z,87.49
2022-10-26T12:57:28.878Z,87.36
2022-10-26T13:00:06.092Z,87.31
2022-10-26T13:02:57.662Z,87.62
2022-10-26T13:06:12.859Z,86.96
2022-10-26T13:08:47.213Z,86.97
2022-10-26T13:11:22.380Z,87.68
2022-10-26T13:13:57.335Z,87.01
2022-10-26T13:16:29.571Z,86.61
2022-10-26T13:19:00.668Z,87.31
2022-10-26T13:21:30.244Z,87.55
2022-10-26T13:24:05.643Z,87.23
2022-10-26T13:27:13.369Z,86.84
2022-10-26T13:30:33.902Z,87.06
2022-10-26T13:33:05.002Z,87.85
2022-10-26T13:35:34.991Z,87.36
2022-10-26T13:38:11.730Z,87.44
2022-10-26T13:40:44.452Z,87.64
2022-10-26T13:43:22.742Z,87.03
2022-10-26T13:45:57.512Z,87.16
2022-10-26T13:48:39.254Z,87.20
2022-10-26T13:51:20.541Z,87.34
2022-10-26T13:53:58.611Z,87.87
2022-10-26T13:56:37.297Z,87.73
2022-10-26T13:59:12.350Z,88.24
2022-10-26T14:01:41.997Z,88.24
2022-10-26T14:04:18.917Z,88.89
2022-10-26T14:06:53.742Z,88.91
2022-10-26T14:09:24.409Z,88.80
2022-10-26T14:11:58.466Z,89.07
2022-10-26T14:14:31.974Z,89.06
2022-10-26T14:17:02.116Z,89.19
2022-10-26T14:19:39.961Z,89.72
2022-10-26T14:22:09.321Z,90.02
2022-10-26T14:24:47.280Z,90.44
2022-10-26T14:27:20.137Z,90.67
2022-10-26T14:30:20.940Z,90.93
2022-10-26T14:32:44.541Z,91.30
2022-10-26T14:35:14.520Z,91.65
2022-10-26T14:37:51.947Z,91.39
2022-10-26T14:40:27.312Z,91.65
2022-10-26T14:43:01.851Z,91.80
2022-10-26T14:45:48.252Z,91.84
2022-10-26T14:48:30.208Z,91.85
2022-10-26T14:51:05.873Z,92.13
2022-10-26T14:53:39.722Z,92.26
2022-10-26T14:56:24.650Z,92.17
2022-10-26T14:58:58.505Z,92.44
2022-10-26T15:01:38.608Z,92.60
2022-10-26T15:04:08.953Z,92.59
2022-10-26T15:07:08.841Z,93.30
2022-10-26T15:10:49.104Z,94.25
2022-10-26T15:13:28.408Z,94.49
2022-10-26T15:16:10.904Z,94.36
2022-10-26T15:18:40.721Z,94.46
2022-10-26T15:21:25.696Z,94.49
2022-10-26T15:23:57.329Z,95.76
2022-10-26T15:26:27.028Z,95.63
2022-10-26T15:28:56.523Z,96.05
2022-10-26T15:31:35.209Z,96.77
2022-10-26T15:34:15.939Z,97.08
2022-10-26T15:36:44.860Z,97.03
2022-10-26T15:39:13.515Z,97.04
2022-10-26T15:41:49.338Z,97.06
2022-10-26T15:44:23.096Z,97.17
2022-10-26T15:46:53.258Z,97.73
2022-10-26T15:49:22.857Z,97.59
2022-10-26T15:51:51.480Z,97.36
2022-10-26T15:54:20.134Z,97.26
2022-10-26T15:56:49.156Z,97.18
2022-10-26T15:59:19.852Z,97.58
2022-10-26T16:01:48.872Z,97.55
2022-10-26T16:04:19.015Z,97.71
2022-10-26T16:06:47.807Z,97.85
2022-10-26T16:09:19.127Z,97.77
2022-10-26T16:11:47.969Z,97.86
2022-10-26T16:14:16.543Z,98.16
2022-10-26T16:16:45.192Z,98.03
2022-10-26T16:19:31.173Z,97.90
2022-10-26T16:22:02.853Z,97.79
2022-10-26T16:24:32.521Z,97.85
2022-10-26T16:27:01.534Z,97.88
2022-10-26T16:29:31.791Z,97.72
2022-10-26T16:32:00.425Z,97.76
2022-10-26T16:34:29.118Z,97.75
2022-10-26T16:37:00.238Z,97.54
2022-10-26T16:39:28.931Z,97.50
2022-10-26T16:41:58.170Z,97.62
2022-10-26T16:44:28.055Z,97.83
2022-10-26T16:46:58.083Z,97.85
2022-10-26T16:49:28.035Z,97.99
2022-10-26T16:52:00.238Z,97.83
2022-10-26T16:54:31.190Z,98.04
2022-10-26T16:57:01.985Z,98.10
2022-10-26T16:59:32.025Z,98.38
2022-10-26T17:02:00.813Z,98.57
2022-10-26T17:04:29.676Z,98.86
2022-10-26T17:06:58.243Z,99.03
2022-10-26T17:09:28.639Z,98.97
2022-10-26T17:12:01.729Z,98.54
2022-10-26T17:14:32.136Z,98.75
2022-10-26T17:17:01.462Z,98.67
2022-10-26T17:19:30.351Z,98.64
2022-10-26T17:21:59.064Z,98.52
2022-10-26T17:24:29.407Z,98.38
2022-10-26T17:26:59.693Z,98.37
2022-10-26T17:29:29.253Z,98.42
2022-10-26T17:31:58.149Z,98.78
2022-10-26T17:34:27.478Z,98.92
2022-10-26T17:36:57.763Z,98.75
2022-10-26T17:39:28.143Z,98.41
2022-10-26T17:41:56.913Z,98.31
2022-10-26T17:44:25.994Z,97.97
2022-10-26T17:46:55.037Z,97.67
2022-10-26T17:49:26.518Z,97.81
2022-10-26T17:51:56.750Z,98.01
2022-10-26T17:54:26.537Z,98.05
2022-10-26T17:56:56.806Z,98.09
2022-10-26T17:59:26.666Z,97.96
2022-10-26T18:01:55.704Z,98.24
2022-10-26T18:04:25.880Z,98.46
2022-10-26T18:06:54.709Z,98.43
2022-10-26T18:09:23.482Z,98.58
2022-10-26T18:11:55.839Z,98.53
2022-10-26T18:14:28.309Z,98.38
2022-10-26T18:19:41.436Z,98.39
2022-10-26T18:22:09.922Z,98.39
2022-10-26T18:24:38.864Z,98.22
2022-10-26T18:27:08.782Z,98.29
2022-10-26T18:29:40.102Z,98.44
2022-10-26T18:32:08.799Z,98.55
2022-10-26T18:34:37.850Z,98.57
2022-10-26T18:37:07.955Z,98.71
2022-10-26T18:39:36.749Z,98.60
2022-10-26T18:42:06.543Z,98.47
2022-10-26T18:44:35.830Z,97.90
2022-10-26T18:47:05.125Z,98.08
2022-10-26T18:49:34.203Z,97.69
2022-10-26T18:52:13.934Z,97.82
2022-10-26T18:54:43.623Z,97.32
2022-10-26T18:57:14.617Z,97.21
2022-10-26T18:59:44.034Z,97.03
2022-10-26T19:02:17.383Z,96.97
2022-10-26T19:04:46.811Z,96.63
2022-10-26T19:07:23.218Z,96.45
2022-10-26T19:09:53.311Z,96.44
2022-10-26T19:12:22.546Z,96.53
2022-10-26T19:14:52.146Z,96.06
2022-10-26T19:17:22.480Z,95.88
2022-10-26T19:19:51.910Z,95.79
2022-10-26T19:22:22.581Z,95.79
2022-10-26T19:24:51.670Z,95.85
2022-10-26T19:27:20.523Z,95.66
2022-10-26T19:29:49.531Z,95.52
2022-10-26T19:32:18.407Z,95.55
2022-10-26T19:34:47.506Z,95.67
2022-10-26T19:37:16.205Z,95.24
2022-10-26T19:39:46.921Z,94.98
2022-10-26T19:42:16.027Z,95.43
2022-10-26T19:44:47.219Z,94.92
2022-10-26T19:47:16.196Z,95.01
2022-10-26T19:49:45.758Z,95.11
2022-10-26T19:52:14.991Z,94.90
2022-10-26T19:54:45.272Z,94.78
2022-10-26T19:57:14.444Z,94.65
2022-10-26T19:59:43.728Z,94.87
2022-10-26T20:02:13.493Z,94.78
2022-10-26T20:04:43.143Z,94.85
2022-10-26T20:07:15.910Z,94.61
2022-10-26T20:09:46.809Z,94.99
2022-10-26T20:12:17.072Z,94.94
2022-10-26T20:14:46.388Z,94.91
2022-10-26T20:17:17.330Z,94.09
2022-10-26T20:19:46.469Z,94.49
2022-10-26T20:22:15.526Z,94.39
2022-10-26T20:24:45.646Z,94.49
2022-10-26T20:27:14.655Z,94.30
2022-10-26T20:29:43.335Z,94.39
2022-10-26T20:32:15.283Z,94.03
2022-10-26T20:34:46.274Z,93.89
2022-10-26T20:37:16.288Z,93.83
2022-10-26T20:39:47.287Z,94.23
2022-10-26T20:42:25.093Z,93.61
2022-10-26T20:45:04.412Z,93.34
2022-10-26T20:47:34.067Z,93.74
2022-10-26T20:50:04.889Z,93.89
2022-10-26T20:52:43.476Z,93.41
2022-10-26T20:55:28.716Z,93.19
2022-10-26T20:58:04.469Z,93.21
2022-10-26T21:00:43.450Z,93.05
2022-10-26T21:03:13.120Z,93.02
2022-10-26T21:05:48.089Z,92.97
2022-10-26T21:08:16.788Z,92.65
2022-10-26T21:10:46.834Z,92.78
2022-10-26T21:13:15.509Z,93.09
2022-10-26T21:15:45.108Z,92.92
2022-10-26T21:18:13.825Z,92.95
2022-10-26T21:20:42.526Z,92.85
2022-10-26T21:23:12.470Z,92.84
2022-10-26T21:25:41.188Z,92.57
2022-10-26T21:28:11.226Z,93.01
2022-10-26T21:30:39.918Z,92.60
2022-10-26T21:33:08.560Z,92.89
2022-10-26T21:35:37.316Z,92.87
2022-10-26T21:38:05.919Z,92.46
2022-10-26T21:43:12.763Z,92.63
2022-10-26T21:45:40.150Z,92.50
2022-10-26T21:48:07.541Z,92.21
2022-10-26T21:50:35.059Z,92.36
2022-10-26T21:53:02.246Z,92.29
2022-10-26T21:55:29.581Z,92.46
2022-10-26T21:59:11.658Z,92.31
2022-10-26T22:01:40.630Z,92.49
2022-10-26T22:04:11.271Z,92.87
2022-10-26T22:06:39.951Z,92.70
2022-10-26T22:09:08.750Z,92.15
2022-10-26T22:11:37.360Z,91.92
2022-10-26T22:14:06.046Z,92.01
2022-10-26T22:16:36.032Z,91.91
2022-10-26T22:19:08.654Z,92.22
2022-10-26T22:21:40.341Z,92.23
2022-10-26T22:24:11.274Z,92.34
2022-10-26T22:26:40.238Z,92.88
2022-10-26T22:29:08.845Z,92.87
2022-10-26T22:31:41.215Z,92.80
2022-10-26T22:34:16.766Z,92.93
2022-10-26T22:36:46.184Z,93.17
2022-10-26T22:39:14.914Z,93.04
2022-10-26T22:41:43.657Z,93.45
2022-10-26T22:44:12.371Z,93.13
2022-10-26T22:46:42.355Z,93.82
2022-10-26T22:49:13.513Z,93.81
2022-10-26T22:51:42.162Z,93.68
2022-10-26T22:54:13.402Z,94.47
2022-10-26T22:56:42.067Z,94.30
2022-10-26T22:59:10.721Z,94.71
2022-10-26T23:01:42.055Z,94.85
2022-10-26T23:04:12.824Z,94.55
2022-10-26T23:06:42.265Z,94.80
2022-10-26T23:09:10.919Z,94.96
2022-10-26T23:11:39.834Z,94.69
2022-10-26T23:17:07.127Z,95.17
2022-10-26T23:19:34.584Z,95.14
2022-10-26T23:22:02.067Z,95.68
2022-10-26T23:24:29.609Z,95.58
2022-10-26T23:26:58.261Z,95.89
2022-10-26T23:29:26.880Z,96.05
2022-10-26T23:31:55.486Z,96.03
2022-10-26T23:34:25.649Z,96.71
2022-10-26T23:36:54.502Z,96.29
2022-10-26T23:39:24.034Z,96.79
2022-10-26T23:41:53.123Z,96.97
2022-10-26T23:44:22.220Z,97.81
2022-10-26T23:46:51.224Z,98.05
2022-10-26T23:49:20.576Z,97.86
2022-10-26T23:51:51.159Z,98.10
2022-10-26T23:54:20.498Z,97.93
2022-10-26T23:56:49.773Z,98.08
2022-10-26T23:59:19.727Z,97.58
